Elisabeth — PG4185 — position and weather

sailwx.info

Track history (hours):
 
Tides and Currents Weather Stations Pressure Air Temp Water Temp Dewpoint Dewpoint Depression Visibility Wind Speed Wind Dir Waves Ship Positions

Elisabeth

Last reported at 2018-May-13 15:25 UTC. Time now 2018-Jul-21 17:38 UTC.
Position N 14°24' W 061°01'.
Warning: this ship's position is months out of date.

Length 11 m.

Type: Sailing vessel. MMSI: 244615986.

Date/timePositionNaut miles runAvg speedWind from/ knotsBaromVisibWave heightAir tempDewpointWater temp
2018-May-13 15:25N 14°24' W 061°01'2 6.1
2018-May-13 15:00N 14°25' W 060°59'3 6.0
2018-May-13 14:31N 14°25' W 060°56'2 4.7
2018-May-13 14:00N 14°26' W 060°53'0 0.1
2018-May-13 13:30N 14°26' W 060°53'0 0.0
2018-May-12 18:46N 14°26' W 060°53'0 0.0
2018-May-12 18:28N 14°26' W 060°53'0 0.0
2018-May-12 17:58N 14°26' W 060°53'0 0.0
2018-May-12 17:28N 14°26' W 060°53'0 0.0
2018-May-12 16:58N 14°26' W 060°53'0 0.0
2018-May-12 16:28N 14°26' W 060°53'0 0.0
2018-May-12 15:25N 14°26' W 060°53'0 0.0
2018-May-12 14:58N 14°26' W 060°53'0 0.0
2018-May-12 14:28N 14°26' W 060°53'0 0.0
2018-May-12 13:58N 14°26' W 060°53'0 0.0
2018-May-12 13:28N 14°26' W 060°53'0 0.0
2018-May-12 12:58N 14°26' W 060°53'0 0.0
2018-May-12 12:28N 14°26' W 060°53'0 0.0
2018-May-12 11:58N 14°26' W 060°53'0 0.0
2018-May-12 11:28N 14°26' W 060°53'0 0.0
2018-May-12 10:58N 14°26' W 060°53'0 0.0
2018-May-12 10:28N 14°26' W 060°53'0 0.0
2018-May-12 09:58N 14°26' W 060°53'0 0.0
2018-May-12 09:28N 14°26' W 060°53'0 0.0
2018-May-12 08:58N 14°26' W 060°53'0 0.0
2018-May-12 08:28N 14°26' W 060°53'0 0.0
2018-May-12 07:58N 14°26' W 060°53'0 0.0
2018-May-12 07:28N 14°26' W 060°53'0 0.0
2018-May-12 06:58N 14°26' W 060°53'0 0.0
2018-May-12 06:28N 14°26' W 060°53'0 0.0
2018-May-12 05:58N 14°26' W 060°53'0 0.0
2018-May-12 05:28N 14°26' W 060°53'0 0.0
2018-May-12 04:58N 14°26' W 060°53'0 0.0
2018-May-12 04:28N 14°26' W 060°53'0 0.0
2018-May-12 03:58N 14°26' W 060°53'0 0.0
2018-May-12 03:28N 14°26' W 060°53'0 0.0
2018-May-12 02:58N 14°26' W 060°53'0 0.0
2018-May-12 02:28N 14°26' W 060°53'0 0.0
2018-May-12 01:58N 14°26' W 060°53'0 0.0
2018-May-12 01:28N 14°26' W 060°53'0 0.0
2018-May-12 00:58N 14°26' W 060°53'0 0.0
2018-May-12 00:28N 14°26' W 060°53'0 0.0
2018-May-11 23:58N 14°26' W 060°53'0 0.0
2018-May-11 23:28N 14°26' W 060°53'0 0.0
2018-May-11 22:58N 14°26' W 060°53'0 0.0
2018-May-11 22:25N 14°26' W 060°53'0 0.0
2018-May-11 21:58N 14°26' W 060°53'0 0.0
2018-May-11 21:28N 14°26' W 060°53'0 0.0
2018-May-11 20:58N 14°26' W 060°53'0 0.0
2018-May-11 20:28N 14°26' W 060°53'0 0.0
2018-May-11 19:58N 14°26' W 060°53'0 0.0
2018-May-11 19:28N 14°26' W 060°53'2 0.1
2018-May-10 15:26N 14°28' W 060°52'  
2018-May-04 18:33N 14°28' W 060°52'0 0.0
2018-May-04 18:30N 14°28' W 060°52'0 0.0
2018-May-04 18:00N 14°28' W 060°52'0 0.1
2018-May-04 17:28N 14°28' W 060°52'0 0.2
2018-May-04 17:00N 14°28' W 060°52'2 4.4
2018-May-04 16:30N 14°27' W 060°54'3 5.7
2018-May-04 16:00N 14°24' W 060°55'3 6.3
2018-May-04 15:29N 14°21' W 060°55'  
Track history (hours):
 
Tides and Currents Weather Stations Pressure Air Temp Water Temp Dewpoint Dewpoint Depression Visibility Wind Speed Wind Dir Waves Ship Positions

Elisabeth

Last reported at 2018-May-13 15:25 UTC. Time now 2018-Jul-21 17:38 UTC.
Position N 14°24' W 061°01'.
Warning: this ship's position is months out of date.

Length 11 m.

Type: Sailing vessel. MMSI: 244615986.

Date/timePositionNaut miles runAvg speedWind from/ knotsBaromVisibWave heightAir tempDewpointWater temp
2018-May-13 15:25N 14°24' W 061°01'2 6.1
2018-May-13 15:00N 14°25' W 060°59'3 6.0
2018-May-13 14:31N 14°25' W 060°56'2 4.7
2018-May-13 14:00N 14°26' W 060°53'0 0.1
2018-May-13 13:30N 14°26' W 060°53'0 0.0
2018-May-12 18:46N 14°26' W 060°53'0 0.0
2018-May-12 18:28N 14°26' W 060°53'0 0.0
2018-May-12 17:58N 14°26' W 060°53'0 0.0
2018-May-12 17:28N 14°26' W 060°53'0 0.0
2018-May-12 16:58N 14°26' W 060°53'0 0.0
2018-May-12 16:28N 14°26' W 060°53'0 0.0
2018-May-12 15:25N 14°26' W 060°53'0 0.0
2018-May-12 14:58N 14°26' W 060°53'0 0.0
2018-May-12 14:28N 14°26' W 060°53'0 0.0
2018-May-12 13:58N 14°26' W 060°53'0 0.0
2018-May-12 13:28N 14°26' W 060°53'0 0.0
2018-May-12 12:58N 14°26' W 060°53'0 0.0
2018-May-12 12:28N 14°26' W 060°53'0 0.0
2018-May-12 11:58N 14°26' W 060°53'0 0.0
2018-May-12 11:28N 14°26' W 060°53'0 0.0
2018-May-12 10:58N 14°26' W 060°53'0 0.0
2018-May-12 10:28N 14°26' W 060°53'0 0.0
2018-May-12 09:58N 14°26' W 060°53'0 0.0
2018-May-12 09:28N 14°26' W 060°53'0 0.0
2018-May-12 08:58N 14°26' W 060°53'0 0.0
2018-May-12 08:28N 14°26' W 060°53'0 0.0
2018-May-12 07:58N 14°26' W 060°53'0 0.0
2018-May-12 07:28N 14°26' W 060°53'0 0.0
2018-May-12 06:58N 14°26' W 060°53'0 0.0
2018-May-12 06:28N 14°26' W 060°53'0 0.0
2018-May-12 05:58N 14°26' W 060°53'0 0.0
2018-May-12 05:28N 14°26' W 060°53'0 0.0
2018-May-12 04:58N 14°26' W 060°53'0 0.0
2018-May-12 04:28N 14°26' W 060°53'0 0.0
2018-May-12 03:58N 14°26' W 060°53'0 0.0
2018-May-12 03:28N 14°26' W 060°53'0 0.0
2018-May-12 02:58N 14°26' W 060°53'0 0.0
2018-May-12 02:28N 14°26' W 060°53'0 0.0
2018-May-12 01:58N 14°26' W 060°53'0 0.0
2018-May-12 01:28N 14°26' W 060°53'0 0.0
2018-May-12 00:58N 14°26' W 060°53'0 0.0
2018-May-12 00:28N 14°26' W 060°53'0 0.0
2018-May-11 23:58N 14°26' W 060°53'0 0.0
2018-May-11 23:28N 14°26' W 060°53'0 0.0
2018-May-11 22:58N 14°26' W 060°53'0 0.0
2018-May-11 22:25N 14°26' W 060°53'0 0.0
2018-May-11 21:58N 14°26' W 060°53'0 0.0
2018-May-11 21:28N 14°26' W 060°53'0 0.0
2018-May-11 20:58N 14°26' W 060°53'0 0.0
2018-May-11 20:28N 14°26' W 060°53'0 0.0
2018-May-11 19:58N 14°26' W 060°53'0 0.0
2018-May-11 19:28N 14°26' W 060°53'2 0.1
2018-May-10 15:26N 14°28' W 060°52'  
2018-May-04 18:33N 14°28' W 060°52'0 0.0
2018-May-04 18:30N 14°28' W 060°52'0 0.0
2018-May-04 18:00N 14°28' W 060°52'0 0.1
2018-May-04 17:28N 14°28' W 060°52'0 0.2
2018-May-04 17:00N 14°28' W 060°52'2 4.4
2018-May-04 16:30N 14°27' W 060°54'3 5.7
2018-May-04 16:00N 14°24' W 060°55'3 6.3
2018-May-04 15:29N 14°21' W 060°55'  

Dump ship's entire track history